Higgson, Arkansas
Current Conditions -  °F | °C
As of 11:56 AM on Sunday 21 Dec 2014 (Local Time) from KSRC Reporting Station
Clear Clear  
Wind Chill: 51°   Ceiling: Unl
Heat Index: 51°   Visibility: 10mi
Dew Point: 37°   Wind: 8mph
Humidity: 59%   Direction: 140°SE
Pressure: 30.14"   Gusts: NA
Location:  35.1796°N, 91.7125°W
Report Text: KSRC 211756Z AUTO 14007KT 10SM CLR 11/03 A3014 RMK AO2 SLP214 T01060028 10106 20006 58025 TSNO
Loading
Personal Weather Stations






























Interactive Weather Map New forecast layout! Learn more

10-Day Weather Forecast

Advertisements
Track Severe Weather on mobile